Time;durP1;ratioP1;P1;durP2;ratioP2;P2;SDS_P1;SDS_P2;PMS_P1;PMS_P2;Temp;Humidity;BMP_temperature;BMP_pressure;BME280_temperature;BME280_humidity;BME280_pressure;Samples;Min_cycle;Max_cycle;Signal;HPM_P1;HPM_P2
2022/11/05 00:18:13;;;;;;;9.20;3.92;;;9.60;82.10;;;;;;9179734;19;20033;-65
2022/11/05 00:27:52;;;;;;;10.80;3.97;;;9.50;82.00;;;;;;9180877;19;20018;-65
2022/11/05 00:31:04;;;;;;;10.20;4.10;;;9.40;82.00;;;;;;9177675;19;20014;-65
2022/11/05 00:34:08;;;;;;;14.32;4.07;;;9.40;82.10;;;;;;9179328;19;20019;-65
2022/11/05 00:37:12;;;;;;;5.65;3.88;;;9.30;82.10;;;;;;9180419;19;20408;-65
2022/11/05 00:40:16;;;;;;;8.35;3.83;;;9.30;82.10;;;;;;9177939;19;20018;-65
2022/11/05 00:46:39;;;;;;;9.20;4.00;;;9.30;82.10;;;;;;9178979;19;20053;-65
2022/11/05 00:49:40;;;;;;;8.85;3.90;;;9.20;82.10;;;;;;9181131;19;20006;-64
2022/11/05 00:52:58;;;;;;;9.50;3.70;;;9.20;82.10;;;;;;9180543;19;20115;-65
2022/11/05 00:56:02;;;;;;;6.72;3.65;;;9.20;82.10;;;;;;9181929;19;20041;-65
2022/11/05 00:59:05;;;;;;;;;;;9.10;82.10;;;;;;9179057;19;20350;-65
2022/11/05 01:02:11;;;;;;;14.50;4.70;;;9.10;82.10;;;;;;9180492;19;19917;-66
2022/11/05 01:05:15;;;;;;;9.05;3.85;;;9.10;82.00;;;;;;9175198;19;20018;-67
2022/11/05 01:08:22;;;;;;;10.07;4.05;;;9.10;82.10;;;;;;9177397;19;20471;-65
2022/11/05 01:11:35;;;;;;;15.52;4.22;;;9.00;82.10;;;;;;9179313;19;20019;-66
2022/11/05 01:14:39;;;;;;;7.43;3.93;;;9.00;82.10;;;;;;9178780;19;20014;-65
2022/11/05 01:17:45;;;;;;;10.95;4.35;;;8.90;82.10;;;;;;9178533;19;20487;-64
2022/11/05 01:20:50;;;;;;;9.38;4.32;;;8.90;82.20;;;;;;9175634;19;20026;-64
2022/11/05 01:23:54;;;;;;;12.10;4.47;;;8.90;82.20;;;;;;9177348;19;20015;-66
2022/11/05 01:26:57;;;;;;;;;;;8.80;82.10;;;;;;9179217;19;20015;-65
2022/11/05 01:30:01;;;;;;;6.55;3.60;;;8.80;82.20;;;;;;9173577;19;20287;-65
2022/11/05 01:33:07;;;;;;;9.63;3.72;;;8.80;82.10;;;;;;9179065;19;20045;-65
2022/11/05 01:36:12;;;;;;;13.02;4.03;;;8.70;82.10;;;;;;9177528;19;20034;-64
2022/11/05 01:39:16;;;;;;;8.70;3.58;;;8.70;82.10;;;;;;9177508;19;20023;-65
2022/11/05 01:42:21;;;;;;;;;;;8.70;82.20;;;;;;9178567;19;20011;-64
2022/11/05 01:45:26;;;;;;;8.32;3.53;;;8.60;82.10;;;;;;9179412;19;19923;-65
2022/11/05 01:48:36;;;;;;;11.02;3.90;;;8.60;82.10;;;;;;9178623;19;20770;-64
2022/11/05 01:51:40;;;;;;;9.07;3.40;;;8.60;82.10;;;;;;9178323;19;20018;-64
2022/11/05 01:54:45;;;;;;;7.68;3.33;;;8.60;82.20;;;;;;9176178;19;20014;-64
2022/11/05 01:57:51;;;;;;;5.47;3.53;;;8.60;82.20;;;;;;9177101;19;20513;-64
2022/11/05 02:00:57;;;;;;;12.95;4.45;;;8.60;82.30;;;;;;9175002;19;20043;-65
2022/11/05 02:04:05;;;;;;;9.55;3.97;;;8.60;82.30;;;;;;9175994;19;20030;-65
2022/11/05 02:07:11;;;;;;;8.18;3.10;;;8.50;82.20;;;;;;9176702;19;20014;-64
2022/11/05 02:10:16;;;;;;;14.25;4.95;;;8.50;82.30;;;;;;9177994;19;20013;-65
2022/11/05 02:13:20;;;;;;;8.60;4.15;;;8.50;82.30;;;;;;9176221;19;20018;-64
2022/11/05 02:16:36;;;;;;;8.50;4.03;;;8.50;82.30;;;;;;9177901;19;20014;-65
2022/11/05 02:20:19;;;;;;;7.63;4.53;;;8.40;82.30;;;;;;9177048;19;20041;-66
2022/11/05 02:23:56;;;;;;;9.18;5.10;;;8.40;82.30;;;;;;9173504;19;20414;-65
2022/11/05 02:27:18;;;;;;;6.78;3.60;;;8.40;82.30;;;;;;9176206;19;20357;-65
2022/11/05 02:30:41;;;;;;;12.00;4.63;;;8.40;82.30;;;;;;9174478;19;20031;-66
2022/11/05 02:33:55;;;;;;;7.25;4.28;;;8.30;82.20;;;;;;9176262;19;20010;-64
2022/11/05 02:37:07;;;;;;;7.63;4.40;;;8.30;82.20;;;;;;9176773;19;20010;-65
2022/11/05 02:40:17;;;;;;;9.57;4.28;;;8.30;82.20;;;;;;9173463;19;20018;-65
2022/11/05 02:43:32;;;;;;;10.23;4.13;;;8.30;82.20;;;;;;9175660;19;20011;-65
2022/11/05 02:46:47;;;;;;;14.57;4.38;;;8.20;82.20;;;;;;9176316;19;20021;-65
2022/11/05 02:49:58;;;;;;;9.88;4.28;;;8.20;82.20;;;;;;9174641;19;20023;-64
2022/11/05 02:53:05;;;;;;;6.80;3.97;;;8.20;82.20;;;;;;9175445;19;20029;-64
2022/11/05 02:56:13;;;;;;;7.40;3.88;;;8.10;82.20;;;;;;9176207;19;20039;-65
2022/11/05 02:59:16;;;;;;;6.07;3.50;;;8.10;82.20;;;;;;9174091;19;20360;-66
2022/11/05 03:02:22;;;;;;;8.32;3.85;;;8.10;82.20;;;;;;9176082;19;20015;-65
2022/11/05 03:05:35;;;;;;;7.03;3.70;;;8.00;82.20;;;;;;9172432;19;20018;-66
2022/11/05 03:08:56;;;;;;;7.57;3.65;;;8.00;82.20;;;;;;9176245;19;20713;-65
2022/11/05 03:12:11;;;;;;;6.80;4.07;;;8.00;82.20;;;;;;9175488;19;20022;-64
2022/11/05 03:15:27;;;;;;;10.15;4.32;;;7.90;82.20;;;;;;9174387;19;20007;-65
2022/11/05 03:18:41;;;;;;;9.30;4.25;;;7.90;82.20;;;;;;9174481;19;20022;-64
2022/11/05 03:21:49;;;;;;;7.22;4.40;;;7.90;82.20;;;;;;9171489;19;20040;-66
2022/11/05 03:25:03;;;;;;;7.85;4.18;;;7.80;82.20;;;;;;9174282;19;20025;-64
2022/11/05 03:28:11;;;;;;;10.48;4.35;;;7.80;82.20;;;;;;9175036;19;20026;-65
2022/11/05 03:31:17;;;;;;;9.85;4.90;;;7.80;82.20;;;;;;9171415;19;20011;-66
2022/11/05 03:34:29;;;;;;;5.18;3.60;;;7.70;82.20;;;;;;9173328;19;20043;-65
2022/11/05 03:37:35;;;;;;;8.82;4.22;;;7.70;82.20;;;;;;9182975;19;20486;-65
2022/11/05 03:40:42;;;;;;;5.72;3.83;;;7.70;82.20;;;;;;9181256;19;20074;-64
2022/11/05 03:43:50;;;;;;;7.95;4.78;;;7.60;82.20;;;;;;9182127;19;20011;-65
2022/11/05 03:46:57;;;;;;;6.90;4.28;;;7.70;82.30;;;;;;9182166;19;20010;-65
2022/11/05 03:50:10;;;;;;;8.52;4.43;;;7.60;82.20;;;;;;9182738;19;20344;-65
2022/11/05 03:53:17;;;;;;;9.90;4.25;;;7.60;82.30;;;;;;9181212;19;20432;-65
2022/11/05 03:56:26;;;;;;;9.45;4.65;;;7.50;82.20;;;;;;9180491;19;20011;-65
2022/11/05 03:59:32;;;;;;;14.65;5.97;;;7.50;82.30;;;;;;9180867;19;20169;-66
2022/11/05 04:02:36;;;;;;;5.70;4.07;;;7.50;82.30;;;;;;9180846;19;20427;-65
2022/11/05 04:05:42;;;;;;;7.72;3.70;;;7.40;82.20;;;;;;9177991;19;20010;-66
2022/11/05 04:15:19;;;;;;;8.82;4.32;;;7.40;82.20;;;;;;9180368;19;20055;-66
2022/11/05 04:18:21;;;;;;;;;;;7.40;82.30;;;;;;9181945;19;20050;-65
2022/11/05 04:24:44;;;;;;;8.07;4.15;;;7.30;82.20;;;;;;9180766;19;20029;-65
2022/11/05 04:27:48;;;;;;;5.20;3.88;;;7.30;82.20;;;;;;9179249;19;20035;-66
2022/11/05 04:30:50;;;;;;;7.53;4.20;;;7.20;82.20;;;;;;9176427;19;20025;-65
2022/11/05 04:33:54;;;;;;;8.40;3.80;;;7.20;82.20;;;;;;9180548;19;20010;-65
2022/11/05 04:36:59;;;;;;;7.40;3.88;;;7.10;82.20;;;;;;9180080;19;20015;-66
2022/11/05 04:40:03;;;;;;;10.15;4.22;;;7.10;82.30;;;;;;9177119;19;20138;-66
2022/11/05 04:43:07;;;;;;;8.73;4.25;;;7.10;82.30;;;;;;9178674;19;20392;-66
2022/11/05 04:46:18;;;;;;;7.25;3.70;;;7.10;82.40;;;;;;9178562;19;20355;-65
2022/11/05 04:49:22;;;;;;;11.38;3.42;;;7.00;82.40;;;;;;9181467;19;20035;-67
2022/11/05 04:52:27;;;;;;;;;;;7.00;82.40;;;;;;9179963;19;20022;-65
2022/11/05 04:55:31;;;;;;;6.15;3.00;;;7.00;82.40;;;;;;9180538;19;19997;-65
2022/11/05 04:58:35;;;;;;;9.32;3.25;;;7.00;82.30;;;;;;9181374;19;20018;-65
2022/11/05 05:01:39;;;;;;;7.93;3.40;;;7.00;82.50;;;;;;9178413;19;20123;-66
2022/11/05 05:04:43;;;;;;;6.55;3.63;;;6.90;82.50;;;;;;9178975;19;20011;-65
2022/11/05 05:07:48;;;;;;;10.57;3.28;;;7.00;82.60;;;;;;9180395;19;20088;-67
2022/11/05 05:10:52;;;;;;;5.45;3.33;;;6.90;82.60;;;;;;9178277;19;20039;-65
2022/11/05 05:13:56;;;;;;;;;;;6.90;82.50;;;;;;9180732;19;20442;-66
2022/11/05 05:17:00;;;;;;;7.73;3.23;;;6.90;82.60;;;;;;9178025;19;20212;-66
2022/11/05 05:23:23;;;;;;;5.85;2.40;;;6.90;82.50;;;;;;9178783;19;20019;-65
2022/11/05 05:26:27;;;;;;;9.73;3.50;;;6.90;82.60;;;;;;9180681;19;20103;-65
2022/11/05 05:29:31;;;;;;;8.90;3.42;;;6.90;82.60;;;;;;9173716;19;20054;-65
2022/11/05 05:32:35;;;;;;;5.18;2.90;;;6.90;82.70;;;;;;9178416;19;20019;-66
2022/11/05 05:35:38;;;;;;;6.20;2.70;;;6.90;82.70;;;;;;9178697;19;20025;-65
2022/11/05 05:38:44;;;;;;;8.88;3.25;;;6.90;82.80;;;;;;9178143;19;20077;-64
2022/11/05 05:41:48;;;;;;;9.25;3.22;;;6.90;82.70;;;;;;9175807;19;20491;-64
2022/11/05 05:44:51;;;;;;;10.38;3.08;;;6.90;82.80;;;;;;9177822;19;20435;-66
2022/11/05 05:47:56;;;;;;;9.23;3.25;;;6.90;82.70;;;;;;9177889;19;20055;-65
2022/11/05 05:51:03;;;;;;;5.03;3.13;;;6.90;82.80;;;;;;9178930;19;20031;-64
2022/11/05 05:54:09;;;;;;;8.40;2.95;;;6.90;82.80;;;;;;9179810;19;20560;-67
2022/11/05 05:57:13;;;;;;;8.60;3.10;;;6.90;82.80;;;;;;9171720;19;20035;-66
2022/11/05 06:00:17;;;;;;;6.15;2.65;;;6.90;82.80;;;;;;9177756;19;20365;-65
2022/11/05 06:03:21;;;;;;;13.52;3.15;;;6.90;82.80;;;;;;9178160;19;20026;-66
2022/11/05 06:06:25;;;;;;;6.63;3.45;;;6.90;82.90;;;;;;9177475;19;20010;-65
2022/11/05 06:09:31;;;;;;;10.80;3.45;;;6.80;82.80;;;;;;9173681;19;20043;-65
2022/11/05 06:12:35;;;;;;;8.95;3.05;;;6.90;82.90;;;;;;9172016;19;20061;-68
2022/11/05 06:15:39;;;;;;;12.35;3.33;;;6.90;82.90;;;;;;9170337;19;20022;-65
2022/11/05 06:18:43;;;;;;;;;;;6.90;82.90;;;;;;9174131;19;20038;-65
2022/11/05 06:21:46;;;;;;;6.50;3.30;;;6.90;82.90;;;;;;9170980;19;20411;-65
2022/11/05 06:24:52;;;;;;;8.13;3.28;;;6.90;82.80;;;;;;9171350;19;20462;-66
2022/11/05 06:27:56;;;;;;;7.18;3.15;;;6.90;82.80;;;;;;9170424;19;20023;-65
2022/11/05 06:31:00;;;;;;;;;;;6.80;82.80;;;;;;9166541;19;20022;-66
2022/11/05 06:34:04;;;;;;;7.93;3.58;;;6.90;83.00;;;;;;9169246;19;19949;-65
2022/11/05 06:37:08;;;;;;;7.68;3.95;;;6.90;82.80;;;;;;9170360;19;20486;-66
2022/11/05 06:40:14;;;;;;;14.35;4.70;;;6.80;82.80;;;;;;9176385;19;20534;-68
2022/11/05 06:43:18;;;;;;;14.25;5.60;;;6.80;82.90;;;;;;9176597;19;20037;-65
2022/11/05 06:46:21;;;;;;;;;;;6.80;82.90;;;;;;9176291;19;20022;-66
2022/11/05 06:49:25;;;;;;;13.18;5.30;;;6.80;82.90;;;;;;9176741;19;19915;-65
2022/11/05 06:52:30;;;;;;;;;;;6.80;83.40;;;;;;9174306;19;20047;-65
2022/11/05 06:55:36;;;;;;;11.65;5.15;;;6.80;82.90;;;;;;9174583;19;19919;-65
2022/11/05 06:58:40;;;;;;;18.08;4.75;;;6.80;82.70;;;;;;9176338;19;20551;-66
2022/11/05 07:01:44;;;;;;;16.63;5.80;;;6.80;82.90;;;;;;9169435;19;20011;-66
2022/11/05 07:04:48;;;;;;;12.18;5.85;;;6.80;82.90;;;;;;9170539;19;20017;-66
2022/11/05 07:07:51;;;;;;;10.98;5.93;;;6.70;82.80;;;;;;9172449;19;20690;-65
2022/11/05 07:10:57;;;;;;;14.50;5.00;;;6.80;82.90;;;;;;9179866;19;20026;-67
2022/11/05 07:14:02;;;;;;;9.35;6.03;;;6.80;82.90;;;;;;9182882;19;20459;-66
2022/11/05 07:17:05;;;;;;;9.65;5.95;;;6.80;83.00;;;;;;9182062;19;20026;-66
2022/11/05 07:20:10;;;;;;;;;;;6.70;82.90;;;;;;9180400;19;20378;-66
2022/11/05 07:23:15;;;;;;;10.05;6.05;;;6.80;83.00;;;;;;9180841;19;19966;-67
2022/11/05 07:26:21;;;;;;;11.00;5.85;;;6.80;82.90;;;;;;9182085;19;20011;-66
2022/11/05 07:29:24;;;;;;;13.73;6.30;;;6.80;83.00;;;;;;9173250;19;20366;-66
2022/11/05 07:32:28;;;;;;;13.80;7.03;;;6.80;83.10;;;;;;9175342;19;20652;-65
2022/11/05 07:35:32;;;;;;;14.60;7.03;;;6.80;83.10;;;;;;9178992;19;20021;-66
2022/11/05 07:38:36;;;;;;;13.90;6.40;;;6.80;83.20;;;;;;9179281;19;20022;-66
2022/11/05 07:41:42;;;;;;;10.75;6.38;;;6.80;83.30;;;;;;9174317;19;20023;-65
2022/11/05 07:44:46;;;;;;;13.00;7.28;;;6.80;83.30;;;;;;9175655;19;20131;-65
2022/11/05 07:47:51;;;;;;;;;;;6.80;83.30;;;;;;9177081;19;20059;-67
2022/11/05 07:50:56;;;;;;;13.48;7.07;;;6.90;83.40;;;;;;9176762;19;19923;-65
2022/11/05 07:53:59;;;;;;;13.30;6.45;;;6.90;83.20;;;;;;9175687;19;20018;-65
2022/11/05 07:57:05;;;;;;;13.05;6.47;;;6.90;83.30;;;;;;9175814;19;20014;-66
2022/11/05 08:00:11;;;;;;;11.48;6.15;;;7.00;83.40;;;;;;9180458;19;20018;-65
2022/11/05 08:03:17;;;;;;;13.95;7.30;;;7.00;83.40;;;;;;9181965;19;20026;-66
2022/11/05 08:06:22;;;;;;;12.77;7.05;;;7.00;83.40;;;;;;9181798;19;20086;-65
2022/11/05 08:09:26;;;;;;;;;;;7.10;83.50;;;;;;9181605;19;20019;-67
2022/11/05 08:12:32;;;;;;;12.60;6.47;;;7.10;83.50;;;;;;9181170;19;19919;-65
2022/11/05 08:15:37;;;;;;;14.57;6.78;;;7.10;83.40;;;;;;9180030;19;20040;-66
2022/11/05 08:18:41;;;;;;;14.05;7.00;;;7.10;83.50;;;;;;9175749;19;20047;-67
2022/11/05 08:21:45;;;;;;;14.07;7.68;;;7.20;83.50;;;;;;9173845;19;20625;-64
2022/11/05 08:24:48;;;;;;;14.55;6.95;;;7.20;83.60;;;;;;9178440;19;20010;-65
2022/11/05 08:27:59;;;;;;;12.98;6.88;;;7.30;83.60;;;;;;9176334;19;20026;-66
2022/11/05 08:31:03;;;;;;;16.90;7.47;;;7.30;83.70;;;;;;9171900;19;20520;-65
2022/11/05 08:34:06;;;;;;;;;;;7.30;83.70;;;;;;9181925;19;20029;-65
2022/11/05 08:37:10;;;;;;;9.40;6.53;;;7.40;83.70;;;;;;9180843;19;19923;-65
2022/11/05 08:40:14;;;;;;;12.10;7.20;;;7.40;83.50;;;;;;9175022;19;20027;-66
2022/11/05 08:43:20;;;;;;;12.60;6.85;;;7.50;83.70;;;;;;9180005;19;20530;-64
2022/11/05 08:46:24;;;;;;;17.23;6.55;;;7.50;83.70;;;;;;9179593;19;20359;-65
2022/11/05 08:49:28;;;;;;;12.98;6.93;;;7.50;83.70;;;;;;9179057;19;20043;-65
2022/11/05 08:52:31;;;;;;;;;;;7.60;83.80;;;;;;9180167;19;20011;-65
2022/11/05 08:55:35;;;;;;;11.23;6.80;;;7.60;84.40;;;;;;9180276;19;20010;-65
2022/11/05 08:58:41;;;;;;;;;;;7.70;83.70;;;;;;9181325;19;20018;-64
2022/11/05 09:01:45;;;;;;;15.63;6.45;;;7.70;83.80;;;;;;9176566;19;20316;-64
2022/11/05 09:04:49;;;;;;;11.85;6.95;;;7.80;83.80;;;;;;9178157;19;20102;-65
2022/11/05 09:07:52;;;;;;;13.80;7.68;;;7.80;83.90;;;;;;9179011;19;20372;-65
2022/11/05 09:11:03;;;;;;;10.93;6.80;;;7.90;83.90;;;;;;9179427;19;20015;-65
2022/11/05 09:14:09;;;;;;;11.85;6.45;;;7.90;83.90;;;;;;9178899;19;20022;-63
2022/11/05 09:17:19;;;;;;;12.38;6.07;;;8.00;84.00;;;;;;9179791;19;20019;-65
2022/11/05 09:20:23;;;;;;;13.02;6.63;;;8.00;84.10;;;;;;9177856;19;20018;-65
2022/11/05 09:23:27;;;;;;;15.82;6.47;;;8.10;84.20;;;;;;9178179;19;20023;-65
2022/11/05 09:26:31;;;;;;;13.05;7.30;;;8.20;84.20;;;;;;9176151;19;20447;-65
2022/11/05 09:29:36;;;;;;;15.52;7.20;;;8.30;84.30;;;;;;9176301;19;20018;-65
2022/11/05 09:32:40;;;;;;;14.27;6.50;;;8.40;84.40;;;;;;9178044;19;20353;-65
2022/11/05 09:35:44;;;;;;;12.40;6.55;;;8.40;84.30;;;;;;9175096;19;20014;-64
2022/11/05 09:38:48;;;;;;;14.20;7.20;;;8.50;84.40;;;;;;9177755;19;20051;-65
2022/11/05 09:41:54;;;;;;;13.88;7.25;;;8.60;84.40;;;;;;9177183;19;20478;-65
2022/11/05 09:45:02;;;;;;;14.65;6.97;;;8.70;84.40;;;;;;9178632;19;20051;-66
2022/11/05 09:48:11;;;;;;;11.88;6.68;;;8.90;84.60;;;;;;9179182;19;20037;-64
2022/11/05 09:51:16;;;;;;;14.07;7.72;;;9.00;84.60;;;;;;9178182;19;20014;-65
2022/11/05 09:54:30;;;;;;;13.70;6.78;;;9.10;84.60;;;;;;9178116;19;20018;-64
2022/11/05 09:57:42;;;;;;;11.23;6.72;;;9.30;84.70;;;;;;9178712;19;20018;-65
2022/11/05 10:00:51;;;;;;;20.85;8.15;;;9.40;84.60;;;;;;9175111;19;20035;-65
2022/11/05 10:03:57;;;;;;;18.25;8.52;;;9.60;84.60;;;;;;9174954;19;20018;-65
2022/11/05 10:07:05;;;;;;;20.40;8.23;;;9.70;84.50;;;;;;9176617;19;20042;-66
2022/11/05 10:10:19;;;;;;;12.15;6.93;;;9.90;84.70;;;;;;9177009;19;20037;-65
2022/11/05 10:13:26;;;;;;;;;;;10.00;84.70;;;;;;9177284;19;20291;-65
2022/11/05 10:16:36;;;;;;;14.73;6.35;;;10.20;84.60;;;;;;9175817;19;19919;-66
2022/11/05 10:19:45;;;;;;;13.50;6.47;;;10.40;84.40;;;;;;9176475;19;20108;-65
2022/11/05 10:22:50;;;;;;;13.88;6.45;;;10.60;84.40;;;;;;9172611;19;20022;-65
2022/11/05 10:25:57;;;;;;;8.43;5.53;;;10.80;84.40;;;;;;9175767;19;20023;-65
2022/11/05 10:29:01;;;;;;;17.30;5.95;;;11.00;84.30;;;;;;9177555;19;20337;-65
2022/11/05 10:32:08;;;;;;;10.52;6.13;;;11.10;84.10;;;;;;9172274;19;20031;-66
2022/11/05 10:35:17;;;;;;;19.63;5.60;;;11.30;84.10;;;;;;9176015;19;20011;-65
2022/11/05 10:38:21;;;;;;;19.52;6.68;;;11.40;84.00;;;;;;9178066;19;20006;-66
2022/11/05 10:41:36;;;;;;;12.23;5.30;;;11.50;83.90;;;;;;9175191;19;20021;-65
2022/11/05 10:44:47;;;;;;;11.95;5.57;;;11.70;83.70;;;;;;9173474;19;20022;-65
2022/11/05 10:48:10;;;;;;;13.80;4.88;;;11.80;83.60;;;;;;9174754;19;20015;-66
2022/11/05 10:51:14;;;;;;;15.65;5.07;;;12.00;83.40;;;;;;9176280;19;20104;-65
2022/11/05 10:54:27;;;;;;;12.95;5.00;;;12.00;83.30;;;;;;9175353;19;20014;-66
2022/11/05 10:57:34;;;;;;;11.07;5.20;;;12.10;83.10;;;;;;9173808;19;20522;-65
2022/11/05 11:00:38;;;;;;;9.30;4.53;;;12.20;83.10;;;;;;9174155;19;20347;-67
2022/11/05 11:03:48;;;;;;;13.20;5.50;;;12.20;82.90;;;;;;9172607;19;20027;-65
2022/11/05 11:06:54;;;;;;;11.27;4.47;;;12.30;82.90;;;;;;9175104;19;20022;-65
2022/11/05 11:09:58;;;;;;;9.95;4.97;;;12.30;82.80;;;;;;9174869;19;20032;-66
2022/11/05 11:13:02;;;;;;;20.05;5.72;;;12.40;82.80;;;;;;9176176;19;20022;-65
2022/11/05 11:16:16;;;;;;;11.00;4.55;;;12.40;82.70;;;;;;9172207;19;20037;-65
2022/11/05 11:19:29;;;;;;;12.32;5.05;;;12.40;82.70;;;;;;9172678;19;20025;-66
2022/11/05 11:22:33;;;;;;;12.37;5.13;;;12.50;82.70;;;;;;9170020;19;20019;-65
2022/11/05 11:25:46;;;;;;;13.13;5.82;;;12.60;82.70;;;;;;9173584;19;20022;-66
2022/11/05 11:28:59;;;;;;;11.85;4.63;;;12.60;82.60;;;;;;9172308;19;20043;-67
2022/11/05 11:32:03;;;;;;;8.50;4.53;;;12.70;82.60;;;;;;9168752;19;20406;-66
2022/11/05 11:35:21;;;;;;;9.05;4.80;;;12.70;82.50;;;;;;9174660;19;20031;-66
2022/11/05 11:38:26;;;;;;;16.48;4.28;;;12.80;82.30;;;;;;9174167;19;20046;-65
2022/11/05 11:41:34;;;;;;;9.70;4.70;;;12.80;82.30;;;;;;9171882;19;20039;-66
2022/11/05 11:44:43;;;;;;;10.55;4.85;;;12.80;82.20;;;;;;9171732;19;20014;-67
2022/11/05 11:47:49;;;;;;;9.95;4.88;;;12.80;82.10;;;;;;9171594;19;20037;-66
2022/11/05 11:50:56;;;;;;;9.95;4.50;;;12.80;82.00;;;;;;9172676;19;20030;-65
2022/11/05 11:54:01;;;;;;;7.45;4.57;;;12.90;82.00;;;;;;9172653;19;20031;-67
2022/11/05 11:57:22;;;;;;;14.50;5.57;;;12.90;82.00;;;;;;9179416;19;20014;-66
2022/11/05 12:00:28;;;;;;;9.15;4.88;;;12.90;81.90;;;;;;9182423;19;20010;-65
2022/11/05 12:03:41;;;;;;;13.45;4.50;;;12.90;81.90;;;;;;9182100;19;20033;-66
2022/11/05 12:06:53;;;;;;;10.48;4.68;;;12.90;81.90;;;;;;9180167;19;20421;-65
2022/11/05 12:10:11;;;;;;;8.43;4.07;;;12.90;81.80;;;;;;9181241;19;20018;-67
2022/11/05 12:13:45;;;;;;;8.32;3.72;;;13.00;81.80;;;;;;9173618;19;20041;-65
2022/11/05 12:17:09;;;;;;;12.38;4.03;;;13.00;81.60;;;;;;9173891;19;20533;-65
2022/11/05 12:20:25;;;;;;;10.88;5.30;;;13.00;81.70;;;;;;9180249;19;20014;-65
2022/11/05 12:23:49;;;;;;;11.23;4.75;;;13.00;81.60;;;;;;9177653;19;20026;-65
2022/11/05 12:27:04;;;;;;;12.47;4.20;;;13.10;81.60;;;;;;9179835;19;20038;-66
2022/11/05 12:30:15;;;;;;;11.02;4.15;;;13.00;81.50;;;;;;9175093;19;20011;-66
2022/11/05 12:33:30;;;;;;;12.63;3.95;;;13.10;81.40;;;;;;9178981;19;20007;-66
2022/11/05 12:36:46;;;;;;;7.60;3.60;;;13.10;81.30;;;;;;9179716;19;20022;-66
2022/11/05 12:40:19;;;;;;;7.55;3.30;;;13.10;81.20;;;;;;9179171;19;20019;-66
2022/11/05 12:43:32;;;;;;;9.45;3.67;;;13.10;81.00;;;;;;9180961;19;20077;-65
2022/11/05 12:46:41;;;;;;;11.82;4.40;;;13.10;81.00;;;;;;9179147;19;20471;-67
2022/11/05 12:50:05;;;;;;;10.90;4.07;;;13.10;81.00;;;;;;9180701;19;20043;-66
2022/11/05 12:53:32;;;;;;;12.60;4.10;;;13.10;80.80;;;;;;9178352;19;20015;-65
2022/11/05 12:56:41;;;;;;;9.43;4.22;;;13.20;80.80;;;;;;9178043;19;20018;-64
2022/11/05 12:59:53;;;;;;;11.48;4.25;;;13.10;80.70;;;;;;9179292;19;20043;-65
2022/11/05 13:03:06;;;;;;;14.07;4.60;;;13.10;80.60;;;;;;9174328;19;20039;-65
2022/11/05 13:06:13;;;;;;;13.90;4.40;;;13.10;80.60;;;;;;9177810;19;20065;-66
2022/11/05 13:09:21;;;;;;;18.42;4.65;;;13.10;81.20;;;;;;9179692;19;20025;-65
2022/11/05 13:12:31;;;;;;;9.20;4.13;;;13.10;80.50;;;;;;9179658;19;20348;-65
2022/11/05 13:15:39;;;;;;;9.20;4.80;;;13.10;80.50;;;;;;9172051;19;20014;-64
2022/11/05 13:18:46;;;;;;;6.63;4.60;;;13.10;80.50;;;;;;9170669;19;20470;-65
2022/11/05 13:21:54;;;;;;;8.50;4.25;;;13.10;80.50;;;;;;9170657;19;20499;-65
2022/11/05 13:25:03;;;;;;;10.27;4.53;;;13.10;80.40;;;;;;9174354;19;20415;-66
2022/11/05 13:28:20;;;;;;;11.73;5.22;;;13.10;80.30;;;;;;9171744;19;20352;-65
2022/11/05 13:31:32;;;;;;;11.55;4.57;;;13.10;80.20;;;;;;9168739;19;20026;-66
2022/11/05 13:34:36;;;;;;;10.50;4.82;;;13.10;80.20;;;;;;9173634;19;20022;-65
2022/11/05 13:41:21;;;;;;;8.98;3.90;;;13.10;80.10;;;;;;9170663;19;20289;-65
2022/11/05 13:44:58;;;;;;;12.10;4.35;;;13.00;80.10;;;;;;9172747;19;20014;-65
2022/11/05 13:48:27;;;;;;;15.10;5.40;;;13.00;79.90;;;;;;9177399;19;20025;-65
2022/11/05 13:51:48;;;;;;;18.70;4.90;;;13.00;79.90;;;;;;9178624;19;20018;-64
2022/11/05 13:55:18;;;;;;;12.27;4.43;;;13.00;79.80;;;;;;9176114;19;20047;-65
2022/11/05 13:58:58;;;;;;;7.88;3.97;;;13.00;79.80;;;;;;9176760;19;20027;-65
2022/11/05 14:02:12;;;;;;;9.07;4.18;;;13.00;79.80;;;;;;9173260;19;20022;-65
2022/11/05 14:05:27;;;;;;;8.27;4.18;;;13.00;79.80;;;;;;9175899;19;20058;-67
2022/11/05 14:08:34;;;;;;;10.27;4.25;;;13.00;79.70;;;;;;9176503;19;20376;-66
2022/11/05 14:11:42;;;;;;;8.82;3.92;;;13.00;79.70;;;;;;9177608;19;20083;-64
2022/11/05 14:14:51;;;;;;;8.35;3.63;;;12.90;79.60;;;;;;9176140;19;20442;-64
2022/11/05 14:18:06;;;;;;;8.32;3.42;;;12.90;79.50;;;;;;9176088;19;20033;-66
2022/11/05 14:21:33;;;;;;;12.23;3.40;;;12.90;79.50;;;;;;9176796;19;20011;-65
2022/11/05 14:24:43;;;;;;;9.23;3.60;;;12.90;79.30;;;;;;9175231;19;20018;-65
2022/11/05 14:27:48;;;;;;;8.30;4.30;;;12.90;79.40;;;;;;9174421;19;20018;-67
2022/11/05 14:30:52;;;;;;;8.73;4.35;;;12.80;79.40;;;;;;9168686;19;20030;-64
2022/11/05 14:34:05;;;;;;;12.30;5.43;;;12.80;79.30;;;;;;9176723;19;20035;-65
2022/11/05 14:37:44;;;;;;;8.27;4.20;;;12.80;79.30;;;;;;9176317;19;20510;-65
2022/11/05 14:40:59;;;;;;;14.10;4.95;;;12.70;79.10;;;;;;9170307;19;20019;-67
2022/11/05 14:44:08;;;;;;;8.68;4.68;;;12.70;79.30;;;;;;9174488;19;20049;-65
2022/11/05 14:47:23;;;;;;;12.77;5.35;;;12.70;79.20;;;;;;9176560;19;20042;-65
2022/11/05 14:50:37;;;;;;;7.88;4.40;;;12.60;79.20;;;;;;9175362;19;20018;-65
2022/11/05 14:53:41;;;;;;;7.60;4.78;;;12.60;79.30;;;;;;9173370;19;20035;-65
2022/11/05 14:56:47;;;;;;;11.18;4.72;;;12.50;79.20;;;;;;9173748;19;20010;-64
2022/11/05 14:59:59;;;;;;;8.68;4.25;;;12.50;79.20;;;;;;9176694;19;20487;-65
2022/11/05 15:03:05;;;;;;;12.95;4.55;;;12.50;79.20;;;;;;9169992;19;20014;-65
2022/11/05 15:06:27;;;;;;;8.48;4.25;;;12.40;79.20;;;;;;9174018;19;20460;-64
2022/11/05 15:09:34;;;;;;;12.65;4.50;;;12.40;79.10;;;;;;9173094;19;20875;-65
2022/11/05 15:12:43;;;;;;;14.93;4.85;;;12.30;79.20;;;;;;9172396;19;20054;-66
2022/11/05 15:15:49;;;;;;;7.88;4.80;;;12.30;79.20;;;;;;9173665;19;20039;-65
2022/11/05 15:18:56;;;;;;;11.35;5.20;;;12.30;79.80;;;;;;9172133;19;20381;-65
2022/11/05 15:22:06;;;;;;;11.50;5.65;;;12.30;79.30;;;;;;9171698;19;20449;-65
2022/11/05 15:25:19;;;;;;;10.57;5.15;;;12.20;79.20;;;;;;9173079;19;20043;-64
2022/11/05 15:28:31;;;;;;;17.27;6.45;;;12.20;79.20;;;;;;9171605;19;20014;-67
2022/11/05 15:31:39;;;;;;;19.48;7.75;;;12.10;79.20;;;;;;9172873;19;20471;-65
2022/11/05 15:34:52;;;;;;;19.27;6.57;;;12.10;79.30;;;;;;9174903;19;20023;-65
2022/11/05 15:37:59;;;;;;;11.50;5.40;;;12.10;79.20;;;;;;9174429;19;20022;-64
2022/11/05 15:41:15;;;;;;;15.77;4.97;;;12.00;79.20;;;;;;9173322;19;20479;-69
2022/11/05 15:44:27;;;;;;;8.57;5.40;;;12.00;79.20;;;;;;9174659;19;20006;-65
2022/11/05 15:47:33;;;;;;;12.75;5.30;;;12.00;79.30;;;;;;9176949;19;20328;-65
2022/11/05 15:50:37;;;;;;;13.82;5.30;;;11.90;79.20;;;;;;9174791;19;20490;-65
2022/11/05 15:54:00;;;;;;;15.88;6.00;;;11.90;79.20;;;;;;9174693;19;20010;-65
2022/11/05 15:57:27;;;;;;;18.77;7.43;;;11.90;79.20;;;;;;9175495;19;20102;-65
2022/11/05 16:00:33;;;;;;;13.20;5.70;;;11.80;79.20;;;;;;9174085;19;20108;-66
2022/11/05 16:03:40;;;;;;;9.13;5.07;;;11.80;79.30;;;;;;9168999;19;20014;-66
2022/11/05 16:06:46;;;;;;;13.32;5.15;;;11.70;79.30;;;;;;9171893;19;20018;-65
2022/11/05 16:09:56;;;;;;;13.85;5.93;;;11.70;79.30;;;;;;9174006;19;20022;-67
2022/11/05 16:13:22;;;;;;;12.90;5.70;;;11.70;79.30;;;;;;9172300;19;20018;-65
2022/11/05 16:16:35;;;;;;;11.68;5.65;;;11.70;79.30;;;;;;9171817;19;20478;-64
2022/11/05 16:19:42;;;;;;;10.13;5.32;;;11.60;79.30;;;;;;9176304;19;20041;-65
2022/11/05 16:22:47;;;;;;;17.60;5.68;;;11.60;79.30;;;;;;9173695;19;20051;-64
2022/11/05 16:25:54;;;;;;;13.68;5.72;;;11.60;79.40;;;;;;9176908;19;20018;-66
2022/11/05 16:28:58;;;;;;;14.30;5.50;;;11.60;79.40;;;;;;9175097;19;20027;-65
2022/11/05 16:32:05;;;;;;;15.65;6.35;;;11.60;79.50;;;;;;9171620;19;20041;-65
2022/11/05 16:35:20;;;;;;;16.65;7.38;;;11.60;79.50;;;;;;9174943;19;20026;-64
2022/11/05 16:38:24;;;;;;;13.98;6.13;;;11.60;79.60;;;;;;9175673;19;20376;-64
2022/11/05 16:41:31;;;;;;;15.20;5.43;;;11.60;79.50;;;;;;9171115;19;20043;-66
2022/11/05 16:44:35;;;;;;;15.55;6.30;;;11.60;79.50;;;;;;9175941;19;20030;-64
2022/11/05 16:47:39;;;;;;;;;;;11.50;79.40;;;;;;9175993;19;20018;-65
2022/11/05 16:50:44;;;;;;;12.48;4.85;;;11.50;79.50;;;;;;9173200;19;19922;-65
2022/11/05 16:53:49;;;;;;;11.82;4.88;;;11.50;79.50;;;;;;9173897;19;20081;-65
2022/11/05 16:56:54;;;;;;;11.48;5.32;;;11.50;79.50;;;;;;9174507;19;20021;-64
2022/11/05 17:00:01;;;;;;;12.70;5.07;;;11.50;79.50;;;;;;9176189;19;20463;-66
2022/11/05 17:03:05;;;;;;;9.93;4.93;;;11.50;79.60;;;;;;9172921;19;20014;-65
2022/11/05 17:06:09;;;;;;;9.00;4.95;;;11.40;79.50;;;;;;9174221;19;20381;-66
2022/11/05 17:09:13;;;;;;;20.58;6.32;;;11.40;79.50;;;;;;9176879;19;20025;-65
2022/11/05 17:12:19;;;;;;;11.07;5.07;;;11.40;79.50;;;;;;9173980;19;20025;-65